Terminal Aerodrome Forecast
Issued by NWS

Current Version | Previous Version | Text Only | Print | Product List | Glossary On
Versions: 1 2 3 4 5 6 7 8 9 10 11 12 13 14 15 16 17 18 19
000
FTUS46 KEKA 201739
TAFCEC
TAF
KCEC 201739Z 2018/2118 33011KT P6SM SCT025 BKN035
     FM202200 33014G22KT P6SM FEW025 SCT035
     FM210600 33009KT P6SM BKN015=

USA.gov is the U.S. government's official web portal to all federal, state and local government web resources and services.